sensor_id;sensor_type;location;lat;lon;timestamp;P1;durP1;ratioP1;P2;durP2;ratioP2
64282;SDS011;50497;50.720;-2.084;2022-09-09T00:04:12;7.18;;;2.60;;
64282;SDS011;50497;50.720;-2.084;2022-09-09T00:09:40;12.63;;;3.05;;
64282;SDS011;50497;50.720;-2.084;2022-09-09T00:12:18;8.52;;;2.63;;
64282;SDS011;50497;50.720;-2.084;2022-09-09T00:23:30;7.25;;;2.40;;
64282;SDS011;50497;50.720;-2.084;2022-09-09T00:26:21;8.07;;;2.10;;
64282;SDS011;50497;50.720;-2.084;2022-09-09T00:31:37;6.95;;;1.90;;
64282;SDS011;50497;50.720;-2.084;2022-09-09T00:34:13;6.65;;;2.20;;
64282;SDS011;50497;50.720;-2.084;2022-09-09T00:36:43;8.48;;;2.60;;
64282;SDS011;50497;50.720;-2.084;2022-09-09T00:39:23;8.23;;;2.22;;
64282;SDS011;50497;50.720;-2.084;2022-09-09T00:42:16;7.35;;;2.20;;
64282;SDS011;50497;50.720;-2.084;2022-09-09T00:44:56;5.28;;;1.80;;
64282;SDS011;50497;50.720;-2.084;2022-09-09T00:56:09;8.27;;;2.00;;
64282;SDS011;50497;50.720;-2.084;2022-09-09T00:58:40;5.22;;;2.05;;
64282;SDS011;50497;50.720;-2.084;2022-09-09T01:01:11;5.38;;;2.10;;
64282;SDS011;50497;50.720;-2.084;2022-09-09T01:06:37;5.03;;;1.80;;
64282;SDS011;50497;50.720;-2.084;2022-09-09T01:14:45;7.47;;;2.10;;
64282;SDS011;50497;50.720;-2.084;2022-09-09T01:22:17;6.07;;;2.00;;
64282;SDS011;50497;50.720;-2.084;2022-09-09T01:27:37;6.22;;;2.10;;
64282;SDS011;50497;50.720;-2.084;2022-09-09T01:30:14;6.57;;;2.17;;
64282;SDS011;50497;50.720;-2.084;2022-09-09T01:32:53;6.55;;;2.00;;
64282;SDS011;50497;50.720;-2.084;2022-09-09T01:37:55;6.70;;;2.10;;
64282;SDS011;50497;50.720;-2.084;2022-09-09T01:40:21;6.00;;;1.90;;
64282;SDS011;50497;50.720;-2.084;2022-09-09T01:42:51;6.72;;;2.20;;
64282;SDS011;50497;50.720;-2.084;2022-09-09T01:45:18;9.60;;;2.20;;
64282;SDS011;50497;50.720;-2.084;2022-09-09T01:47:44;7.68;;;2.05;;
64282;SDS011;50497;50.720;-2.084;2022-09-09T01:50:11;5.95;;;2.47;;
64282;SDS011;50497;50.720;-2.084;2022-09-09T01:52:40;6.47;;;2.05;;
64282;SDS011;50497;50.720;-2.084;2022-09-09T01:55:07;5.88;;;2.22;;
64282;SDS011;50497;50.720;-2.084;2022-09-09T01:57:53;7.60;;;2.10;;
64282;SDS011;50497;50.720;-2.084;2022-09-09T02:00:49;6.45;;;2.20;;
64282;SDS011;50497;50.720;-2.084;2022-09-09T02:03:35;9.15;;;2.05;;
64282;SDS011;50497;50.720;-2.084;2022-09-09T02:08:45;7.63;;;2.10;;
64282;SDS011;50497;50.720;-2.084;2022-09-09T02:11:16;6.75;;;2.15;;
64282;SDS011;50497;50.720;-2.084;2022-09-09T02:13:45;7.50;;;2.50;;
64282;SDS011;50497;50.720;-2.084;2022-09-09T02:19:13;10.10;;;2.78;;
64282;SDS011;50497;50.720;-2.084;2022-09-09T02:21:52;7.82;;;2.78;;
64282;SDS011;50497;50.720;-2.084;2022-09-09T02:24:23;8.48;;;3.40;;
64282;SDS011;50497;50.720;-2.084;2022-09-09T02:26:52;9.43;;;3.90;;
64282;SDS011;50497;50.720;-2.084;2022-09-09T02:29:26;9.00;;;3.40;;
64282;SDS011;50497;50.720;-2.084;2022-09-09T02:31:57;8.45;;;3.70;;
64282;SDS011;50497;50.720;-2.084;2022-09-09T02:34:28;12.40;;;4.13;;
64282;SDS011;50497;50.720;-2.084;2022-09-09T02:36:57;10.07;;;3.90;;
64282;SDS011;50497;50.720;-2.084;2022-09-09T02:39:25;8.63;;;4.15;;
64282;SDS011;50497;50.720;-2.084;2022-09-09T02:41:51;12.07;;;4.25;;
64282;SDS011;50497;50.720;-2.084;2022-09-09T02:44:17;9.88;;;4.20;;
64282;SDS011;50497;50.720;-2.084;2022-09-09T02:55:50;12.40;;;4.80;;
64282;SDS011;50497;50.720;-2.084;2022-09-09T02:58:25;13.95;;;5.63;;
64282;SDS011;50497;50.720;-2.084;2022-09-09T03:00:54;11.07;;;5.40;;
64282;SDS011;50497;50.720;-2.084;2022-09-09T03:03:22;13.90;;;6.13;;
64282;SDS011;50497;50.720;-2.084;2022-09-09T03:05:48;12.93;;;5.93;;
64282;SDS011;50497;50.720;-2.084;2022-09-09T03:08:15;12.95;;;6.22;;
64282;SDS011;50497;50.720;-2.084;2022-09-09T03:10:41;13.77;;;6.10;;
64282;SDS011;50497;50.720;-2.084;2022-09-09T03:13:07;12.98;;;5.70;;
64282;SDS011;50497;50.720;-2.084;2022-09-09T03:15:36;13.70;;;6.20;;
64282;SDS011;50497;50.720;-2.084;2022-09-09T03:18:03;14.85;;;6.57;;
64282;SDS011;50497;50.720;-2.084;2022-09-09T03:20:29;19.00;;;6.80;;
64282;SDS011;50497;50.720;-2.084;2022-09-09T03:22:56;12.40;;;6.13;;
64282;SDS011;50497;50.720;-2.084;2022-09-09T03:25:22;17.48;;;6.70;;
64282;SDS011;50497;50.720;-2.084;2022-09-09T03:27:52;15.85;;;6.75;;
64282;SDS011;50497;50.720;-2.084;2022-09-09T03:30:20;14.90;;;6.38;;
64282;SDS011;50497;50.720;-2.084;2022-09-09T03:32:49;14.13;;;6.60;;
64282;SDS011;50497;50.720;-2.084;2022-09-09T03:35:15;14.52;;;6.38;;
64282;SDS011;50497;50.720;-2.084;2022-09-09T03:37:41;19.90;;;7.57;;
64282;SDS011;50497;50.720;-2.084;2022-09-09T03:40:07;15.55;;;6.88;;
64282;SDS011;50497;50.720;-2.084;2022-09-09T03:42:35;18.05;;;6.55;;
64282;SDS011;50497;50.720;-2.084;2022-09-09T03:45:02;15.27;;;7.25;;
64282;SDS011;50497;50.720;-2.084;2022-09-09T03:47:34;16.63;;;7.15;;
64282;SDS011;50497;50.720;-2.084;2022-09-09T03:50:05;16.38;;;6.72;;
64282;SDS011;50497;50.720;-2.084;2022-09-09T03:52:40;17.33;;;6.80;;
64282;SDS011;50497;50.720;-2.084;2022-09-09T03:55:08;16.60;;;6.68;;
64282;SDS011;50497;50.720;-2.084;2022-09-09T03:57:38;14.65;;;6.70;;
64282;SDS011;50497;50.720;-2.084;2022-09-09T04:00:04;18.15;;;7.03;;
64282;SDS011;50497;50.720;-2.084;2022-09-09T04:02:32;16.35;;;8.15;;
64282;SDS011;50497;50.720;-2.084;2022-09-09T04:04:58;15.93;;;6.88;;
64282;SDS011;50497;50.720;-2.084;2022-09-09T04:07:25;20.83;;;7.80;;
64282;SDS011;50497;50.720;-2.084;2022-09-09T04:09:54;17.83;;;7.80;;
64282;SDS011;50497;50.720;-2.084;2022-09-09T04:12:19;20.05;;;7.88;;
64282;SDS011;50497;50.720;-2.084;2022-09-09T04:17:15;20.60;;;8.05;;
64282;SDS011;50497;50.720;-2.084;2022-09-09T04:19:42;18.33;;;8.15;;
64282;SDS011;50497;50.720;-2.084;2022-09-09T04:22:07;19.35;;;8.15;;
64282;SDS011;50497;50.720;-2.084;2022-09-09T04:24:33;16.08;;;6.85;;
64282;SDS011;50497;50.720;-2.084;2022-09-09T04:27:00;15.82;;;6.72;;
64282;SDS011;50497;50.720;-2.084;2022-09-09T04:29:25;15.85;;;7.72;;
64282;SDS011;50497;50.720;-2.084;2022-09-09T04:31:51;13.18;;;6.28;;
64282;SDS011;50497;50.720;-2.084;2022-09-09T04:34:16;16.55;;;7.53;;
64282;SDS011;50497;50.720;-2.084;2022-09-09T04:36:42;16.85;;;6.82;;
64282;SDS011;50497;50.720;-2.084;2022-09-09T04:39:08;14.60;;;6.38;;
64282;SDS011;50497;50.720;-2.084;2022-09-09T04:41:33;15.07;;;6.32;;
64282;SDS011;50497;50.720;-2.084;2022-09-09T04:44:00;13.80;;;5.68;;
64282;SDS011;50497;50.720;-2.084;2022-09-09T04:46:26;14.27;;;6.28;;
64282;SDS011;50497;50.720;-2.084;2022-09-09T04:48:52;13.43;;;6.10;;
64282;SDS011;50497;50.720;-2.084;2022-09-09T04:51:18;17.30;;;6.78;;
64282;SDS011;50497;50.720;-2.084;2022-09-09T04:53:43;11.38;;;5.82;;
64282;SDS011;50497;50.720;-2.084;2022-09-09T04:56:12;13.20;;;4.75;;
64282;SDS011;50497;50.720;-2.084;2022-09-09T04:58:39;13.27;;;4.80;;
64282;SDS011;50497;50.720;-2.084;2022-09-09T05:01:18;12.40;;;4.40;;
64282;SDS011;50497;50.720;-2.084;2022-09-09T05:03:49;12.38;;;4.45;;
64282;SDS011;50497;50.720;-2.084;2022-09-09T05:06:15;8.80;;;3.95;;
64282;SDS011;50497;50.720;-2.084;2022-09-09T05:08:43;12.80;;;4.57;;
64282;SDS011;50497;50.720;-2.084;2022-09-09T05:11:20;11.40;;;4.47;;
64282;SDS011;50497;50.720;-2.084;2022-09-09T05:13:49;12.50;;;4.70;;
64282;SDS011;50497;50.720;-2.084;2022-09-09T05:16:16;11.52;;;4.00;;
64282;SDS011;50497;50.720;-2.084;2022-09-09T05:18:42;14.05;;;4.72;;
64282;SDS011;50497;50.720;-2.084;2022-09-09T05:21:09;13.85;;;5.07;;
64282;SDS011;50497;50.720;-2.084;2022-09-09T05:23:35;13.55;;;4.10;;
64282;SDS011;50497;50.720;-2.084;2022-09-09T05:26:05;11.13;;;4.43;;
64282;SDS011;50497;50.720;-2.084;2022-09-09T05:28:34;12.93;;;4.20;;
64282;SDS011;50497;50.720;-2.084;2022-09-09T05:31:02;12.93;;;4.32;;
64282;SDS011;50497;50.720;-2.084;2022-09-09T05:33:30;9.80;;;4.10;;
64282;SDS011;50497;50.720;-2.084;2022-09-09T05:35:57;9.90;;;4.60;;
64282;SDS011;50497;50.720;-2.084;2022-09-09T05:38:24;13.15;;;4.85;;
64282;SDS011;50497;50.720;-2.084;2022-09-09T05:40:50;12.38;;;4.70;;
64282;SDS011;50497;50.720;-2.084;2022-09-09T05:43:17;10.25;;;4.00;;
64282;SDS011;50497;50.720;-2.084;2022-09-09T05:48:08;9.97;;;3.70;;
64282;SDS011;50497;50.720;-2.084;2022-09-09T05:50:34;13.85;;;4.22;;
64282;SDS011;50497;50.720;-2.084;2022-09-09T05:52:59;11.45;;;4.30;;
64282;SDS011;50497;50.720;-2.084;2022-09-09T05:55:25;12.70;;;4.38;;
64282;SDS011;50497;50.720;-2.084;2022-09-09T05:57:50;14.27;;;4.30;;
64282;SDS011;50497;50.720;-2.084;2022-09-09T06:02:42;8.40;;;3.78;;
64282;SDS011;50497;50.720;-2.084;2022-09-09T06:05:07;13.27;;;4.00;;
64282;SDS011;50497;50.720;-2.084;2022-09-09T06:07:34;11.35;;;4.55;;
64282;SDS011;50497;50.720;-2.084;2022-09-09T06:09:59;13.02;;;3.92;;
64282;SDS011;50497;50.720;-2.084;2022-09-09T06:12:25;11.45;;;4.30;;
64282;SDS011;50497;50.720;-2.084;2022-09-09T06:14:50;9.35;;;3.85;;
64282;SDS011;50497;50.720;-2.084;2022-09-09T06:17:17;8.88;;;3.60;;
64282;SDS011;50497;50.720;-2.084;2022-09-09T06:19:42;14.95;;;3.85;;
64282;SDS011;50497;50.720;-2.084;2022-09-09T06:22:07;8.73;;;3.70;;
64282;SDS011;50497;50.720;-2.084;2022-09-09T06:24:37;10.38;;;3.60;;
64282;SDS011;50497;50.720;-2.084;2022-09-09T06:27:03;12.65;;;4.18;;
64282;SDS011;50497;50.720;-2.084;2022-09-09T06:29:30;11.48;;;4.25;;
64282;SDS011;50497;50.720;-2.084;2022-09-09T06:31:55;8.68;;;3.78;;
64282;SDS011;50497;50.720;-2.084;2022-09-09T06:34:21;9.77;;;3.35;;
64282;SDS011;50497;50.720;-2.084;2022-09-09T06:36:53;9.02;;;3.67;;
64282;SDS011;50497;50.720;-2.084;2022-09-09T06:39:19;7.00;;;3.65;;
64282;SDS011;50497;50.720;-2.084;2022-09-09T06:41:44;10.02;;;3.30;;
64282;SDS011;50497;50.720;-2.084;2022-09-09T06:44:10;7.88;;;3.28;;
64282;SDS011;50497;50.720;-2.084;2022-09-09T06:46:37;12.85;;;3.95;;
64282;SDS011;50497;50.720;-2.084;2022-09-09T06:51:29;9.68;;;3.10;;
64282;SDS011;50497;50.720;-2.084;2022-09-09T06:53:57;8.75;;;2.63;;
64282;SDS011;50497;50.720;-2.084;2022-09-09T06:56:25;9.02;;;3.10;;
64282;SDS011;50497;50.720;-2.084;2022-09-09T06:58:57;9.52;;;3.30;;
64282;SDS011;50497;50.720;-2.084;2022-09-09T07:01:27;8.27;;;2.53;;
64282;SDS011;50497;50.720;-2.084;2022-09-09T07:03:56;10.63;;;2.92;;
64282;SDS011;50497;50.720;-2.084;2022-09-09T07:06:29;9.60;;;2.80;;
64282;SDS011;50497;50.720;-2.084;2022-09-09T07:08:57;11.05;;;2.90;;
64282;SDS011;50497;50.720;-2.084;2022-09-09T07:13:56;8.27;;;2.60;;
64282;SDS011;50497;50.720;-2.084;2022-09-09T07:16:26;6.22;;;2.25;;
64282;SDS011;50497;50.720;-2.084;2022-09-09T07:18:54;9.32;;;2.40;;
64282;SDS011;50497;50.720;-2.084;2022-09-09T07:21:23;8.27;;;2.58;;
64282;SDS011;50497;50.720;-2.084;2022-09-09T07:23:51;8.18;;;2.30;;
64282;SDS011;50497;50.720;-2.084;2022-09-09T07:26:18;8.50;;;2.38;;
64282;SDS011;50497;50.720;-2.084;2022-09-09T07:28:45;6.38;;;2.20;;
64282;SDS011;50497;50.720;-2.084;2022-09-09T07:31:16;7.40;;;2.08;;
64282;SDS011;50497;50.720;-2.084;2022-09-09T07:33:49;6.15;;;1.98;;
64282;SDS011;50497;50.720;-2.084;2022-09-09T07:38:43;10.50;;;2.42;;
64282;SDS011;50497;50.720;-2.084;2022-09-09T07:41:12;6.07;;;2.00;;
64282;SDS011;50497;50.720;-2.084;2022-09-09T07:43:43;7.10;;;2.05;;
64282;SDS011;50497;50.720;-2.084;2022-09-09T07:46:10;7.07;;;2.00;;
64282;SDS011;50497;50.720;-2.084;2022-09-09T07:48:37;8.35;;;2.53;;
64282;SDS011;50497;50.720;-2.084;2022-09-09T07:53:34;5.90;;;2.05;;
64282;SDS011;50497;50.720;-2.084;2022-09-09T07:56:05;6.35;;;2.42;;
64282;SDS011;50497;50.720;-2.084;2022-09-09T07:58:34;8.18;;;2.40;;
64282;SDS011;50497;50.720;-2.084;2022-09-09T08:01:05;11.88;;;2.85;;
64282;SDS011;50497;50.720;-2.084;2022-09-09T08:03:35;8.68;;;2.22;;
64282;SDS011;50497;50.720;-2.084;2022-09-09T08:06:02;7.80;;;2.55;;
64282;SDS011;50497;50.720;-2.084;2022-09-09T08:08:28;8.60;;;2.50;;
64282;SDS011;50497;50.720;-2.084;2022-09-09T08:11:01;7.55;;;2.83;;
64282;SDS011;50497;50.720;-2.084;2022-09-09T08:13:39;10.30;;;2.70;;
64282;SDS011;50497;50.720;-2.084;2022-09-09T08:18:33;7.50;;;3.13;;
64282;SDS011;50497;50.720;-2.084;2022-09-09T08:21:10;7.88;;;3.15;;
64282;SDS011;50497;50.720;-2.084;2022-09-09T08:23:41;8.75;;;2.92;;
64282;SDS011;50497;50.720;-2.084;2022-09-09T08:28:40;10.48;;;3.03;;
64282;SDS011;50497;50.720;-2.084;2022-09-09T08:31:11;8.75;;;3.17;;
64282;SDS011;50497;50.720;-2.084;2022-09-09T08:33:38;8.60;;;2.70;;
64282;SDS011;50497;50.720;-2.084;2022-09-09T08:38:31;8.00;;;2.60;;
64282;SDS011;50497;50.720;-2.084;2022-09-09T08:40:58;9.38;;;3.10;;
64282;SDS011;50497;50.720;-2.084;2022-09-09T08:43:46;8.35;;;2.80;;
64282;SDS011;50497;50.720;-2.084;2022-09-09T08:46:20;6.32;;;2.63;;
64282;SDS011;50497;50.720;-2.084;2022-09-09T08:51:48;9.75;;;3.15;;
64282;SDS011;50497;50.720;-2.084;2022-09-09T08:54:14;7.95;;;2.75;;
64282;SDS011;50497;50.720;-2.084;2022-09-09T08:56:41;8.68;;;3.00;;
64282;SDS011;50497;50.720;-2.084;2022-09-09T08:59:07;7.40;;;2.55;;
64282;SDS011;50497;50.720;-2.084;2022-09-09T09:16:33;9.10;;;2.05;;
64282;SDS011;50497;50.720;-2.084;2022-09-09T09:19:03;4.88;;;1.80;;
64282;SDS011;50497;50.720;-2.084;2022-09-09T09:21:49;6.80;;;2.08;;
64282;SDS011;50497;50.720;-2.084;2022-09-09T09:26:47;5.70;;;2.03;;
64282;SDS011;50497;50.720;-2.084;2022-09-09T09:29:14;8.18;;;2.35;;
64282;SDS011;50497;50.720;-2.084;2022-09-09T09:31:55;5.05;;;1.83;;
64282;SDS011;50497;50.720;-2.084;2022-09-09T09:34:24;4.85;;;2.00;;
64282;SDS011;50497;50.720;-2.084;2022-09-09T09:39:26;5.32;;;2.00;;
64282;SDS011;50497;50.720;-2.084;2022-09-09T09:41:54;5.15;;;1.90;;
64282;SDS011;50497;50.720;-2.084;2022-09-09T09:44:29;5.13;;;1.60;;
64282;SDS011;50497;50.720;-2.084;2022-09-09T09:47:16;4.93;;;1.83;;
64282;SDS011;50497;50.720;-2.084;2022-09-09T09:49:59;4.05;;;1.58;;
64282;SDS011;50497;50.720;-2.084;2022-09-09T09:52:26;4.90;;;1.65;;
64282;SDS011;50497;50.720;-2.084;2022-09-09T09:54:54;5.13;;;1.55;;
64282;SDS011;50497;50.720;-2.084;2022-09-09T09:57:26;5.28;;;1.42;;
64282;SDS011;50497;50.720;-2.084;2022-09-09T10:00:13;4.38;;;1.58;;
64282;SDS011;50497;50.720;-2.084;2022-09-09T10:02:43;4.05;;;1.38;;
64282;SDS011;50497;50.720;-2.084;2022-09-09T10:05:26;3.38;;;1.40;;
64282;SDS011;50497;50.720;-2.084;2022-09-09T10:08:04;5.50;;;1.30;;
64282;SDS011;50497;50.720;-2.084;2022-09-09T10:10:40;6.18;;;1.65;;
64282;SDS011;50497;50.720;-2.084;2022-09-09T10:18:58;4.18;;;1.52;;
64282;SDS011;50497;50.720;-2.084;2022-09-09T10:24:18;4.53;;;1.30;;
64282;SDS011;50497;50.720;-2.084;2022-09-09T10:30:04;4.68;;;1.67;;
64282;SDS011;50497;50.720;-2.084;2022-09-09T10:46:28;3.85;;;1.40;;
64282;SDS011;50497;50.720;-2.084;2022-09-09T10:49:27;6.30;;;1.60;;
64282;SDS011;50497;50.720;-2.084;2022-09-09T10:55:18;4.13;;;1.42;;
64282;SDS011;50497;50.720;-2.084;2022-09-09T11:03:09;4.68;;;1.58;;
64282;SDS011;50497;50.720;-2.084;2022-09-09T11:06:00;4.78;;;1.52;;
64282;SDS011;50497;50.720;-2.084;2022-09-09T11:08:30;4.78;;;1.60;;
64282;SDS011;50497;50.720;-2.084;2022-09-09T11:11:15;5.57;;;1.50;;
64282;SDS011;50497;50.720;-2.084;2022-09-09T11:13:53;5.05;;;1.30;;
64282;SDS011;50497;50.720;-2.084;2022-09-09T11:18:54;6.45;;;1.65;;
64282;SDS011;50497;50.720;-2.084;2022-09-09T11:21:30;7.43;;;2.25;;
64282;SDS011;50497;50.720;-2.084;2022-09-09T11:24:10;4.22;;;1.67;;
64282;SDS011;50497;50.720;-2.084;2022-09-09T11:26:45;4.90;;;1.55;;
64282;SDS011;50497;50.720;-2.084;2022-09-09T11:29:29;5.93;;;1.70;;
64282;SDS011;50497;50.720;-2.084;2022-09-09T11:34:37;4.25;;;1.83;;
64282;SDS011;50497;50.720;-2.084;2022-09-09T11:37:22;4.75;;;1.70;;
64282;SDS011;50497;50.720;-2.084;2022-09-09T11:40:14;3.92;;;1.50;;
64282;SDS011;50497;50.720;-2.084;2022-09-09T11:42:44;5.63;;;1.60;;
64282;SDS011;50497;50.720;-2.084;2022-09-09T11:45:30;4.55;;;1.65;;
64282;SDS011;50497;50.720;-2.084;2022-09-09T11:50:33;4.88;;;1.75;;
64282;SDS011;50497;50.720;-2.084;2022-09-09T11:53:19;5.65;;;1.65;;
64282;SDS011;50497;50.720;-2.084;2022-09-09T11:55:59;5.05;;;1.70;;
64282;SDS011;50497;50.720;-2.084;2022-09-09T11:58:41;5.18;;;1.73;;
64282;SDS011;50497;50.720;-2.084;2022-09-09T12:01:16;6.90;;;1.80;;
64282;SDS011;50497;50.720;-2.084;2022-09-09T12:04:01;6.88;;;1.90;;
64282;SDS011;50497;50.720;-2.084;2022-09-09T12:06:50;4.60;;;1.80;;
64282;SDS011;50497;50.720;-2.084;2022-09-09T12:09:31;6.53;;;1.92;;
64282;SDS011;50497;50.720;-2.084;2022-09-09T12:14:54;7.75;;;2.00;;
64282;SDS011;50497;50.720;-2.084;2022-09-09T12:17:23;6.20;;;2.20;;
64282;SDS011;50497;50.720;-2.084;2022-09-09T12:28:03;6.85;;;2.60;;
64282;SDS011;50497;50.720;-2.084;2022-09-09T12:33:37;6.38;;;2.42;;
64282;SDS011;50497;50.720;-2.084;2022-09-09T12:36:12;7.57;;;2.35;;
64282;SDS011;50497;50.720;-2.084;2022-09-09T12:38:42;6.80;;;2.50;;
64282;SDS011;50497;50.720;-2.084;2022-09-09T12:41:21;6.28;;;2.53;;
64282;SDS011;50497;50.720;-2.084;2022-09-09T12:43:48;8.43;;;2.58;;
64282;SDS011;50497;50.720;-2.084;2022-09-09T12:49:26;7.60;;;2.50;;
64282;SDS011;50497;50.720;-2.084;2022-09-09T12:51:58;6.10;;;2.45;;
64282;SDS011;50497;50.720;-2.084;2022-09-09T12:54:31;6.00;;;2.50;;
64282;SDS011;50497;50.720;-2.084;2022-09-09T12:56:59;7.72;;;2.40;;
64282;SDS011;50497;50.720;-2.084;2022-09-09T13:01:56;7.35;;;2.30;;
64282;SDS011;50497;50.720;-2.084;2022-09-09T13:04:22;6.45;;;2.33;;
64282;SDS011;50497;50.720;-2.084;2022-09-09T13:06:48;5.97;;;2.40;;
64282;SDS011;50497;50.720;-2.084;2022-09-09T13:11:41;7.13;;;2.33;;
64282;SDS011;50497;50.720;-2.084;2022-09-09T13:14:12;7.40;;;2.42;;
64282;SDS011;50497;50.720;-2.084;2022-09-09T13:17:04;7.82;;;2.30;;
64282;SDS011;50497;50.720;-2.084;2022-09-09T13:19:33;5.28;;;2.00;;
64282;SDS011;50497;50.720;-2.084;2022-09-09T13:22:12;6.68;;;2.10;;
64282;SDS011;50497;50.720;-2.084;2022-09-09T13:24:39;7.78;;;2.10;;
64282;SDS011;50497;50.720;-2.084;2022-09-09T13:29:52;6.03;;;1.83;;
64282;SDS011;50497;50.720;-2.084;2022-09-09T13:32:24;7.07;;;2.30;;
64282;SDS011;50497;50.720;-2.084;2022-09-09T13:34:55;5.70;;;1.95;;
64282;SDS011;50497;50.720;-2.084;2022-09-09T13:40:06;6.13;;;1.77;;
64282;SDS011;50497;50.720;-2.084;2022-09-09T13:42:43;7.05;;;2.15;;
64282;SDS011;50497;50.720;-2.084;2022-09-09T13:45:17;5.95;;;1.90;;
64282;SDS011;50497;50.720;-2.084;2022-09-09T13:47:45;5.03;;;1.50;;
64282;SDS011;50497;50.720;-2.084;2022-09-09T13:52:54;6.03;;;1.70;;
64282;SDS011;50497;50.720;-2.084;2022-09-09T13:55:23;5.50;;;1.92;;
64282;SDS011;50497;50.720;-2.084;2022-09-09T14:00:18;8.07;;;2.33;;
64282;SDS011;50497;50.720;-2.084;2022-09-09T14:05:09;7.43;;;1.90;;
64282;SDS011;50497;50.720;-2.084;2022-09-09T14:07:38;8.73;;;2.40;;
64282;SDS011;50497;50.720;-2.084;2022-09-09T14:10:08;5.60;;;2.10;;
64282;SDS011;50497;50.720;-2.084;2022-09-09T14:12:34;8.27;;;2.35;;
64282;SDS011;50497;50.720;-2.084;2022-09-09T14:15:01;7.13;;;2.17;;
64282;SDS011;50497;50.720;-2.084;2022-09-09T14:17:28;5.30;;;2.10;;
64282;SDS011;50497;50.720;-2.084;2022-09-09T14:19:55;10.07;;;2.30;;
64282;SDS011;50497;50.720;-2.084;2022-09-09T14:24:47;7.35;;;2.45;;
64282;SDS011;50497;50.720;-2.084;2022-09-09T14:27:13;7.22;;;2.33;;
64282;SDS011;50497;50.720;-2.084;2022-09-09T14:29:38;8.95;;;2.78;;
64282;SDS011;50497;50.720;-2.084;2022-09-09T14:32:04;9.98;;;2.80;;
64282;SDS011;50497;50.720;-2.084;2022-09-09T14:34:29;6.45;;;2.50;;
64282;SDS011;50497;50.720;-2.084;2022-09-09T14:36:57;6.28;;;2.50;;
64282;SDS011;50497;50.720;-2.084;2022-09-09T14:39:23;7.20;;;2.63;;
64282;SDS011;50497;50.720;-2.084;2022-09-09T14:44:14;6.30;;;2.20;;
64282;SDS011;50497;50.720;-2.084;2022-09-09T14:46:41;6.57;;;2.20;;
64282;SDS011;50497;50.720;-2.084;2022-09-09T14:49:09;6.47;;;2.13;;
64282;SDS011;50497;50.720;-2.084;2022-09-09T14:51:37;9.48;;;2.40;;
64282;SDS011;50497;50.720;-2.084;2022-09-09T14:56:32;7.00;;;3.03;;
64282;SDS011;50497;50.720;-2.084;2022-09-09T14:59:01;7.18;;;2.38;;
64282;SDS011;50497;50.720;-2.084;2022-09-09T15:03:56;6.25;;;2.00;;
64282;SDS011;50497;50.720;-2.084;2022-09-09T15:06:24;6.32;;;1.90;;
64282;SDS011;50497;50.720;-2.084;2022-09-09T15:08:52;7.38;;;2.55;;
64282;SDS011;50497;50.720;-2.084;2022-09-09T15:11:18;9.55;;;2.67;;
64282;SDS011;50497;50.720;-2.084;2022-09-09T15:13:45;7.13;;;2.88;;
64282;SDS011;50497;50.720;-2.084;2022-09-09T15:16:16;7.57;;;2.70;;
64282;SDS011;50497;50.720;-2.084;2022-09-09T15:18:50;11.30;;;3.03;;
64282;SDS011;50497;50.720;-2.084;2022-09-09T15:21:20;10.38;;;3.65;;
64282;SDS011;50497;50.720;-2.084;2022-09-09T15:23:48;10.80;;;3.67;;
64282;SDS011;50497;50.720;-2.084;2022-09-09T15:26:17;8.88;;;3.20;;
64282;SDS011;50497;50.720;-2.084;2022-09-09T15:28:44;8.85;;;2.90;;
64282;SDS011;50497;50.720;-2.084;2022-09-09T15:31:16;7.03;;;2.90;;
64282;SDS011;50497;50.720;-2.084;2022-09-09T15:33:49;10.05;;;3.20;;
64282;SDS011;50497;50.720;-2.084;2022-09-09T15:36:39;9.32;;;3.80;;
64282;SDS011;50497;50.720;-2.084;2022-09-09T15:39:07;6.95;;;3.10;;
64282;SDS011;50497;50.720;-2.084;2022-09-09T15:41:37;7.90;;;3.35;;
64282;SDS011;50497;50.720;-2.084;2022-09-09T15:44:04;9.48;;;3.08;;
64282;SDS011;50497;50.720;-2.084;2022-09-09T15:46:40;5.72;;;2.75;;
64282;SDS011;50497;50.720;-2.084;2022-09-09T15:49:13;7.60;;;3.58;;
64282;SDS011;50497;50.720;-2.084;2022-09-09T15:51:44;7.47;;;3.35;;
64282;SDS011;50497;50.720;-2.084;2022-09-09T15:54:15;9.30;;;3.63;;
64282;SDS011;50497;50.720;-2.084;2022-09-09T15:56:43;9.73;;;3.70;;
64282;SDS011;50497;50.720;-2.084;2022-09-09T15:59:15;10.07;;;3.60;;
64282;SDS011;50497;50.720;-2.084;2022-09-09T16:01:41;11.95;;;3.35;;
64282;SDS011;50497;50.720;-2.084;2022-09-09T16:04:08;9.32;;;2.92;;
64282;SDS011;50497;50.720;-2.084;2022-09-09T16:06:34;7.28;;;2.80;;
64282;SDS011;50497;50.720;-2.084;2022-09-09T16:09:02;7.68;;;2.80;;
64282;SDS011;50497;50.720;-2.084;2022-09-09T16:11:30;5.65;;;2.05;;
64282;SDS011;50497;50.720;-2.084;2022-09-09T16:13:58;9.00;;;3.30;;
64282;SDS011;50497;50.720;-2.084;2022-09-09T16:16:25;7.45;;;3.38;;
64282;SDS011;50497;50.720;-2.084;2022-09-09T16:18:55;6.20;;;2.63;;
64282;SDS011;50497;50.720;-2.084;2022-09-09T16:23:52;9.23;;;3.10;;
64282;SDS011;50497;50.720;-2.084;2022-09-09T16:26:20;7.82;;;3.60;;
64282;SDS011;50497;50.720;-2.084;2022-09-09T16:28:47;8.05;;;2.90;;
64282;SDS011;50497;50.720;-2.084;2022-09-09T16:31:17;5.78;;;2.80;;
64282;SDS011;50497;50.720;-2.084;2022-09-09T16:33:45;8.82;;;2.97;;
64282;SDS011;50497;50.720;-2.084;2022-09-09T16:36:15;8.02;;;2.95;;
64282;SDS011;50497;50.720;-2.084;2022-09-09T16:38:55;8.63;;;3.05;;
64282;SDS011;50497;50.720;-2.084;2022-09-09T16:41:27;10.60;;;3.53;;
64282;SDS011;50497;50.720;-2.084;2022-09-09T16:43:54;7.78;;;3.30;;
64282;SDS011;50497;50.720;-2.084;2022-09-09T16:46:24;6.97;;;2.95;;
64282;SDS011;50497;50.720;-2.084;2022-09-09T16:48:52;5.95;;;2.40;;
64282;SDS011;50497;50.720;-2.084;2022-09-09T16:53:47;7.65;;;2.63;;
64282;SDS011;50497;50.720;-2.084;2022-09-09T16:56:14;5.82;;;2.40;;
64282;SDS011;50497;50.720;-2.084;2022-09-09T16:58:48;5.07;;;2.00;;
64282;SDS011;50497;50.720;-2.084;2022-09-09T17:01:15;5.03;;;2.25;;
64282;SDS011;50497;50.720;-2.084;2022-09-09T17:03:40;4.65;;;1.92;;
64282;SDS011;50497;50.720;-2.084;2022-09-09T17:06:11;5.05;;;2.08;;
64282;SDS011;50497;50.720;-2.084;2022-09-09T17:08:42;4.95;;;1.90;;
64282;SDS011;50497;50.720;-2.084;2022-09-09T17:11:12;5.28;;;2.00;;
64282;SDS011;50497;50.720;-2.084;2022-09-09T17:13:42;5.30;;;2.22;;
64282;SDS011;50497;50.720;-2.084;2022-09-09T17:16:11;5.93;;;2.03;;
64282;SDS011;50497;50.720;-2.084;2022-09-09T17:18:38;6.25;;;2.40;;
64282;SDS011;50497;50.720;-2.084;2022-09-09T17:21:09;5.43;;;2.17;;
64282;SDS011;50497;50.720;-2.084;2022-09-09T17:23:39;4.82;;;2.40;;
64282;SDS011;50497;50.720;-2.084;2022-09-09T17:26:06;4.88;;;2.20;;
64282;SDS011;50497;50.720;-2.084;2022-09-09T17:28:40;6.30;;;2.63;;
64282;SDS011;50497;50.720;-2.084;2022-09-09T17:31:06;6.90;;;2.72;;
64282;SDS011;50497;50.720;-2.084;2022-09-09T17:33:36;6.22;;;2.70;;
64282;SDS011;50497;50.720;-2.084;2022-09-09T17:36:11;7.78;;;2.83;;
64282;SDS011;50497;50.720;-2.084;2022-09-09T17:38:41;7.00;;;2.40;;
64282;SDS011;50497;50.720;-2.084;2022-09-09T17:41:12;5.53;;;2.17;;
64282;SDS011;50497;50.720;-2.084;2022-09-09T17:43:46;6.47;;;2.20;;
64282;SDS011;50497;50.720;-2.084;2022-09-09T17:46:19;5.30;;;2.28;;
64282;SDS011;50497;50.720;-2.084;2022-09-09T17:48:47;6.30;;;2.33;;
64282;SDS011;50497;50.720;-2.084;2022-09-09T17:51:15;5.35;;;2.08;;
64282;SDS011;50497;50.720;-2.084;2022-09-09T17:53:45;5.00;;;2.30;;
64282;SDS011;50497;50.720;-2.084;2022-09-09T17:56:13;4.63;;;1.90;;
64282;SDS011;50497;50.720;-2.084;2022-09-09T17:58:41;6.32;;;2.60;;
64282;SDS011;50497;50.720;-2.084;2022-09-09T18:01:08;5.22;;;2.20;;
64282;SDS011;50497;50.720;-2.084;2022-09-09T18:03:40;6.10;;;2.45;;
64282;SDS011;50497;50.720;-2.084;2022-09-09T18:06:12;7.68;;;3.05;;
64282;SDS011;50497;50.720;-2.084;2022-09-09T18:08:46;5.97;;;2.90;;